createdAt,value
2019-04-01T00:01:56.587Z,47.80
2019-04-01T00:04:26.991Z,47.80
2019-04-01T00:06:57.442Z,47.90
2019-04-01T00:09:27.971Z,48.10
2019-04-01T00:11:59.968Z,48.30
2019-04-01T00:14:31.637Z,48.30
2019-04-01T00:17:03.164Z,48.00
2019-04-01T00:19:33.888Z,48.40
2019-04-01T00:22:04.581Z,48.60
2019-04-01T00:24:35.264Z,49.00
2019-04-01T00:27:05.794Z,48.50
2019-04-01T00:29:36.438Z,48.60
2019-04-01T00:32:07.166Z,48.60
2019-04-01T00:34:37.904Z,48.80
2019-04-01T00:37:08.546Z,48.80
2019-04-01T00:39:42.515Z,48.90
2019-04-01T00:42:20.903Z,49.20
2019-04-01T00:44:51.536Z,49.50
2019-04-01T00:47:22.730Z,49.70
2019-04-01T00:49:53.997Z,50.10
2019-04-01T00:52:24.421Z,50.30
2019-04-01T00:54:54.840Z,50.50
2019-04-01T00:57:25.440Z,50.90
2019-04-01T00:59:56.004Z,50.20
2019-04-01T01:02:27.360Z,50.50
2019-04-01T01:04:57.600Z,50.50
2019-04-01T01:07:30.032Z,50.10
2019-04-01T01:10:01.113Z,50.50
2019-04-01T01:12:34.483Z,50.60
2019-04-01T01:15:05.931Z,50.60
2019-04-01T01:17:37.180Z,50.50
2019-04-01T01:20:09.519Z,51.00
2019-04-01T01:22:42.130Z,50.50
2019-04-01T01:25:13.201Z,50.90
2019-04-01T01:27:45.439Z,50.90
2019-04-01T01:30:16.222Z,51.20
2019-04-01T01:32:48.496Z,51.10
2019-04-01T01:35:19.069Z,51.20
2019-04-01T01:37:51.210Z,51.30
2019-04-01T01:40:23.436Z,52.00
2019-04-01T01:42:54.071Z,51.40
2019-04-01T01:45:24.756Z,51.70
2019-04-01T01:47:55.294Z,51.50
2019-04-01T01:50:25.934Z,51.70
2019-04-01T01:52:56.848Z,51.60
2019-04-01T01:55:27.283Z,51.60
2019-04-01T01:58:01.450Z,51.70
2019-04-01T02:00:34.117Z,51.60
2019-04-01T02:03:05.116Z,51.90
2019-04-01T02:05:35.687Z,52.20
2019-04-01T02:08:06.389Z,52.30
2019-04-01T02:10:36.955Z,53.40
2019-04-01T02:13:07.569Z,52.30
2019-04-01T02:15:40.319Z,52.40
2019-04-01T02:18:11.295Z,52.50
2019-04-01T02:20:41.926Z,52.60
2019-04-01T02:23:14.291Z,52.30
2019-04-01T02:25:44.745Z,53.80
2019-04-01T02:28:17.134Z,53.90
2019-04-01T02:30:47.903Z,52.90
2019-04-01T02:33:19.187Z,53.10
2019-04-01T02:35:49.642Z,53.30
2019-04-01T02:38:22.009Z,53.50
2019-04-01T02:40:52.709Z,53.50
2019-04-01T02:43:23.867Z,53.70
2019-04-01T02:45:54.457Z,53.60
2019-04-01T02:48:25.004Z,53.90
2019-04-01T02:50:55.459Z,53.80
2019-04-01T02:53:27.551Z,53.90
2019-04-01T02:55:58.486Z,54.20
2019-04-01T02:58:29.104Z,54.30
2019-04-01T03:01:01.653Z,54.30
2019-04-01T03:03:33.795Z,54.90
2019-04-01T03:06:04.263Z,54.60
2019-04-01T03:08:35.056Z,54.70
2019-04-01T03:11:10.336Z,55.20
2019-04-01T03:13:38.841Z,55.20
2019-04-01T03:16:09.356Z,55.30
2019-04-01T03:18:39.837Z,55.60
2019-04-01T03:21:10.333Z,55.40
2019-04-01T03:23:41.526Z,55.20
2019-04-01T03:26:12.056Z,55.50
2019-04-01T03:28:42.728Z,55.80
2019-04-01T03:31:13.403Z,55.60
2019-04-01T03:33:44.278Z,55.40
2019-04-01T03:36:14.971Z,56.30
2019-04-01T03:41:16.380Z,55.60
2019-04-01T03:43:47.096Z,56.00
2019-04-01T03:46:17.552Z,56.20
2019-04-01T03:48:49.031Z,55.80
2019-04-01T03:51:20.410Z,56.10
2019-04-01T03:53:53.384Z,56.00
2019-04-01T03:56:25.248Z,56.40
2019-04-01T03:58:55.631Z,56.40
2019-04-01T04:03:58.171Z,56.50
2019-04-01T04:06:28.801Z,56.90
2019-04-01T04:09:01.862Z,57.20
2019-04-01T04:11:33.276Z,57.30
2019-04-01T04:14:05.325Z,57.70
2019-04-01T04:16:35.900Z,57.90
2019-04-01T04:19:08.961Z,58.00
2019-04-01T04:21:39.703Z,57.80
2019-04-01T04:24:11.508Z,57.90
2019-04-01T04:26:41.922Z,58.00
2019-04-01T04:29:12.964Z,58.00
2019-04-01T04:31:45.283Z,58.80
2019-04-01T04:34:17.373Z,58.10
2019-04-01T04:36:48.544Z,58.50
2019-04-01T04:39:20.224Z,58.50
2019-04-01T04:41:52.303Z,58.70
2019-04-01T04:44:23.257Z,58.40
2019-04-01T04:46:54.505Z,59.50
2019-04-01T04:49:25.070Z,58.90
2019-04-01T04:51:57.409Z,58.70
2019-04-01T04:54:28.066Z,58.80
2019-04-01T04:56:58.543Z,58.60
2019-04-01T04:59:31.567Z,58.60
2019-04-01T05:02:04.581Z,58.80
2019-04-01T05:04:37.139Z,58.90
2019-04-01T05:07:09.766Z,58.80
2019-04-01T05:09:43.154Z,59.20
2019-04-01T05:12:16.034Z,60.50
2019-04-01T05:14:48.066Z,59.50
2019-04-01T05:19:52.238Z,59.20
2019-04-01T05:22:27.662Z,59.30
2019-04-01T05:24:59.019Z,59.70
2019-04-01T05:27:30.752Z,59.50
2019-04-01T05:30:09.942Z,60.80
2019-04-01T05:32:43.124Z,59.60
2019-04-01T05:35:25.930Z,60.50
2019-04-01T05:37:58.342Z,60.00
2019-04-01T05:40:31.410Z,59.40
2019-04-01T05:46:32.575Z,59.40
2019-04-01T05:49:05.109Z,60.10
2019-04-01T05:51:37.902Z,59.70
2019-04-01T05:54:13.876Z,59.90
2019-04-01T05:59:22.638Z,59.60
2019-04-01T06:01:54.784Z,59.60
2019-04-01T06:04:27.998Z,59.60
2019-04-01T06:07:00.215Z,59.90
2019-04-01T06:15:31.495Z,60.30
2019-04-01T06:18:02.518Z,59.30
2019-04-01T06:20:36.636Z,59.90
2019-04-01T06:23:10.053Z,60.60
2019-04-01T06:25:41.000Z,59.60
2019-04-01T06:30:51.592Z,59.10
2019-04-01T06:36:01.452Z,59.60
2019-04-01T06:38:34.784Z,61.10
2019-04-01T06:43:38.409Z,59.20
2019-04-01T06:46:09.068Z,59.60
2019-04-01T06:48:39.666Z,59.60
2019-04-01T06:51:12.817Z,59.30
2019-04-01T06:53:47.070Z,60.20
2019-04-01T06:56:18.062Z,59.60
2019-04-01T06:58:48.920Z,59.10
2019-04-01T07:01:19.316Z,58.60
2019-04-01T07:03:50.647Z,58.40
2019-04-01T07:06:22.623Z,58.30
2019-04-01T07:08:52.971Z,58.20
2019-04-01T07:11:23.482Z,58.10
2019-04-01T07:13:53.829Z,58.40
2019-04-01T07:16:31.029Z,57.40
2019-04-01T07:19:01.425Z,57.80
2019-04-01T07:21:32.917Z,56.80
2019-04-01T07:24:03.937Z,56.50
2019-04-01T07:26:35.775Z,56.40
2019-04-01T07:29:06.498Z,56.80
2019-04-01T07:31:38.295Z,56.90
2019-04-01T07:34:11.989Z,57.20
2019-04-01T07:36:43.143Z,57.40
2019-04-01T07:39:13.940Z,58.00
2019-04-01T07:41:44.163Z,57.60
2019-04-01T07:44:17.795Z,56.10
2019-04-01T07:46:48.890Z,58.00
2019-04-01T07:49:19.941Z,57.10
2019-04-01T07:51:50.873Z,57.60
2019-04-01T07:54:24.296Z,57.30
2019-04-01T07:56:55.111Z,56.30
2019-04-01T07:59:26.545Z,57.10
2019-04-01T08:01:57.809Z,56.50
2019-04-01T08:04:28.781Z,56.40
2019-04-01T08:06:59.244Z,57.00
2019-04-01T08:09:31.042Z,57.10
2019-04-01T08:12:02.058Z,57.40
2019-04-01T08:14:37.327Z,57.40
2019-04-01T08:17:07.598Z,56.60
2019-04-01T08:19:40.620Z,56.80
2019-04-01T08:22:11.048Z,56.60
2019-04-01T08:24:41.488Z,56.60
2019-04-01T08:27:13.257Z,57.00
2019-04-01T08:29:43.919Z,56.90
2019-04-01T08:34:47.206Z,56.10
2019-04-01T08:37:17.570Z,56.30
2019-04-01T08:39:48.696Z,55.80
2019-04-01T08:42:19.280Z,55.70
2019-04-01T08:44:53.053Z,55.60
2019-04-01T08:47:25.230Z,55.10
2019-04-01T08:49:56.506Z,54.30
2019-04-01T08:52:28.018Z,54.80
2019-04-01T08:54:59.923Z,55.20
2019-04-01T08:57:32.499Z,54.30
2019-04-01T09:00:03.259Z,53.70
2019-04-01T09:02:38.260Z,52.30
2019-04-01T09:05:09.865Z,51.90
2019-04-01T09:07:42.286Z,52.80
2019-04-01T09:10:14.081Z,52.00
2019-04-01T09:12:47.224Z,51.50
2019-04-01T09:15:17.724Z,51.90
2019-04-01T09:17:49.296Z,52.10
2019-04-01T09:20:20.664Z,52.30
2019-04-01T09:22:50.849Z,52.60
2019-04-01T09:25:23.936Z,52.00
2019-04-01T09:27:54.300Z,52.00
2019-04-01T09:30:24.478Z,51.50
2019-04-01T09:32:55.852Z,51.70
2019-04-01T09:35:26.887Z,51.50
2019-04-01T09:38:00.299Z,51.40
2019-04-01T09:40:32.323Z,51.80
2019-04-01T09:43:03.153Z,51.40
2019-04-01T09:45:39.523Z,51.60
2019-04-01T09:48:12.137Z,52.10
2019-04-01T09:50:43.549Z,52.00
2019-04-01T09:55:48.322Z,52.20
2019-04-01T09:58:18.441Z,52.40
2019-04-01T10:00:53.238Z,52.60
2019-04-01T10:03:24.898Z,51.70
2019-04-01T10:05:57.817Z,51.40
2019-04-01T10:08:42.193Z,51.40
2019-04-01T10:11:03.451Z,51.70
2019-04-01T10:13:34.699Z,52.20
2019-04-01T10:16:08.679Z,51.80
2019-04-01T10:18:39.518Z,51.40
2019-04-01T10:21:09.881Z,50.40
2019-04-01T10:23:40.257Z,50.90
2019-04-01T10:28:42.044Z,50.50
2019-04-01T10:31:13.011Z,50.60
2019-04-01T10:33:44.202Z,51.20
2019-04-01T10:36:15.070Z,50.60
2019-04-01T10:38:46.902Z,50.70
2019-04-01T10:43:48.652Z,49.60
2019-04-01T10:46:21.931Z,49.50
2019-04-01T10:48:52.933Z,49.80
2019-04-01T10:51:23.869Z,50.80
2019-04-01T10:53:54.651Z,50.30
2019-04-01T10:56:25.061Z,50.10
2019-04-01T10:58:55.555Z,50.00
2019-04-01T11:01:27.131Z,49.40
2019-04-01T11:03:58.542Z,48.30
2019-04-01T11:06:29.787Z,48.90
2019-04-01T11:09:00.636Z,48.20
2019-04-01T11:11:43.953Z,47.70
2019-04-01T11:14:14.405Z,47.90
2019-04-01T11:16:46.067Z,48.60
2019-04-01T11:19:16.943Z,48.40
2019-04-01T11:21:47.421Z,47.90
2019-04-01T11:24:17.852Z,47.60
2019-04-01T11:26:48.168Z,47.80
2019-04-01T11:29:19.004Z,48.10
2019-04-01T11:31:49.892Z,47.40
2019-04-01T11:34:20.231Z,47.70
2019-04-01T11:36:50.715Z,48.80
2019-04-01T11:39:20.979Z,47.90
2019-04-01T11:41:51.364Z,48.00
2019-04-01T11:44:22.439Z,48.00
2019-04-01T11:46:53.545Z,47.40
2019-04-01T11:49:24.173Z,47.10
2019-04-01T11:51:55.986Z,47.30
2019-04-01T11:54:27.311Z,46.40
2019-04-01T11:56:57.617Z,46.10
2019-04-01T11:59:28.020Z,46.40
2019-04-01T12:01:58.408Z,45.80
2019-04-01T12:04:28.762Z,45.70
2019-04-01T12:07:02.016Z,45.80
2019-04-01T12:09:32.052Z,45.50
2019-04-01T12:12:03.311Z,43.80
2019-04-01T12:14:37.446Z,42.00
2019-04-01T12:17:07.736Z,42.50
2019-04-01T12:19:38.065Z,42.10
2019-04-01T12:22:08.484Z,42.60
2019-04-01T12:24:40.178Z,43.20
2019-04-01T12:27:10.511Z,43.80
2019-04-01T12:29:40.837Z,43.40
2019-04-01T12:32:11.911Z,42.70
2019-04-01T12:34:42.708Z,43.40
2019-04-01T12:37:14.054Z,42.40
2019-04-01T12:39:44.436Z,42.90
2019-04-01T12:42:16.765Z,42.40
2019-04-01T12:44:47.259Z,42.50
2019-04-01T12:47:21.735Z,42.80
2019-04-01T12:49:53.452Z,41.80
2019-04-01T12:52:24.081Z,41.90
2019-04-01T12:54:54.593Z,42.40
2019-04-01T12:57:24.806Z,42.40
2019-04-01T12:59:55.400Z,42.80
2019-04-01T13:02:25.861Z,41.10
2019-04-01T13:04:56.167Z,41.00
2019-04-01T13:07:26.614Z,41.50
2019-04-01T13:09:57.815Z,40.50
2019-04-01T13:12:28.094Z,40.50
2019-04-01T13:14:58.381Z,40.70
2019-04-01T13:17:28.752Z,40.30
2019-04-01T13:19:59.153Z,40.10
2019-04-01T13:22:30.675Z,40.10
2019-04-01T13:25:05.450Z,40.00
2019-04-01T13:27:34.087Z,40.20
2019-04-01T13:32:37.688Z,40.40
2019-04-01T13:35:08.252Z,41.20
2019-04-01T13:37:40.394Z,40.50
2019-04-01T13:40:11.430Z,40.00
2019-04-01T13:45:14.001Z,39.70
2019-04-01T13:47:44.564Z,40.10
2019-04-01T13:52:48.068Z,38.80
2019-04-01T13:55:19.515Z,40.10
2019-04-01T13:57:50.908Z,39.40
2019-04-01T14:00:22.793Z,38.90
2019-04-01T14:02:53.712Z,39.30
2019-04-01T14:05:26.627Z,39.70
2019-04-01T14:07:57.322Z,39.80
2019-04-01T14:10:31.280Z,38.30
2019-04-01T14:13:02.023Z,37.30
2019-04-01T14:15:32.498Z,37.10
2019-04-01T14:18:03.257Z,36.70
2019-04-01T14:20:34.884Z,36.80
2019-04-01T14:25:37.826Z,36.50
2019-04-01T14:28:10.357Z,37.00
2019-04-01T14:30:40.830Z,36.30
2019-04-01T14:33:12.819Z,37.10
2019-04-01T14:35:45.214Z,37.40
2019-04-01T14:38:24.452Z,36.70
2019-04-01T14:41:00.048Z,36.90
2019-04-01T14:43:32.932Z,37.30
2019-04-01T14:46:03.057Z,37.30
2019-04-01T14:48:33.405Z,37.00
2019-04-01T14:51:04.650Z,36.60
2019-04-01T14:53:35.250Z,36.10
2019-04-01T14:56:06.295Z,35.30
2019-04-01T14:58:36.896Z,35.00
2019-04-01T15:01:09.097Z,35.00
2019-04-01T15:03:39.583Z,34.10
2019-04-01T15:06:11.089Z,33.90
2019-04-01T15:08:42.418Z,32.60
2019-04-01T15:11:13.036Z,33.40
2019-04-01T15:13:43.728Z,32.60
2019-04-01T15:16:14.798Z,33.00
2019-04-01T15:18:46.929Z,31.90
2019-04-01T15:21:21.771Z,31.50
2019-04-01T15:23:53.365Z,31.10
2019-04-01T15:26:24.476Z,31.60
2019-04-01T15:28:55.176Z,32.30
2019-04-01T15:31:26.853Z,31.20
2019-04-01T15:34:00.779Z,30.90
2019-04-01T15:36:31.226Z,30.50
2019-04-01T15:39:02.993Z,30.70
2019-04-01T15:41:37.055Z,30.50
2019-04-01T15:44:07.334Z,30.90
2019-04-01T15:46:38.109Z,31.20
2019-04-01T15:49:11.282Z,31.20
2019-04-01T15:51:50.485Z,31.10
2019-04-01T15:54:22.866Z,30.60
2019-04-01T15:59:28.115Z,30.10
2019-04-01T16:02:01.397Z,30.40
2019-04-01T16:04:31.824Z,30.50
2019-04-01T16:07:02.820Z,30.70
2019-04-01T16:09:34.142Z,30.30
2019-04-01T16:12:08.657Z,30.20
2019-04-01T16:14:40.282Z,29.80
2019-04-01T16:17:13.462Z,29.50
2019-04-01T16:19:43.903Z,29.10
2019-04-01T16:22:14.341Z,29.50
2019-04-01T16:24:45.289Z,29.60
2019-04-01T16:27:17.047Z,29.70
2019-04-01T16:29:49.205Z,29.90
2019-04-01T16:32:20.288Z,29.40
2019-04-01T16:34:53.037Z,30.40
2019-04-01T16:37:25.102Z,31.00
2019-04-01T16:39:55.613Z,31.20
2019-04-01T16:45:19.803Z,32.10
2019-04-01T16:47:52.670Z,32.00
2019-04-01T16:50:23.125Z,33.50
2019-04-01T16:52:54.006Z,34.70
2019-04-01T16:55:36.560Z,34.70
2019-04-01T16:58:08.867Z,35.10
2019-04-01T17:00:42.705Z,36.40
2019-04-01T17:03:15.496Z,37.20
2019-04-01T17:05:46.974Z,37.70
2019-04-01T17:08:18.235Z,38.30
2019-04-01T17:10:48.682Z,38.80
2019-04-01T17:13:38.257Z,39.70
2019-04-01T17:16:08.933Z,41.00
2019-04-01T17:18:40.218Z,40.10
2019-04-01T17:21:12.587Z,40.80
2019-04-01T17:23:43.060Z,41.20
2019-04-01T17:26:16.812Z,42.00
2019-04-01T17:28:47.153Z,42.00
2019-04-01T17:31:17.467Z,42.70
2019-04-01T17:33:47.809Z,43.20
2019-04-01T17:36:19.005Z,43.00
2019-04-01T17:38:52.033Z,43.40
2019-04-01T17:41:22.582Z,43.60
2019-04-01T17:43:52.778Z,44.10
2019-04-01T17:46:26.293Z,44.50
2019-04-01T17:48:55.376Z,44.80
2019-04-01T17:51:26.058Z,44.80
2019-04-01T17:53:56.869Z,45.40
2019-04-01T17:56:27.529Z,45.50
2019-04-01T17:59:01.257Z,45.80
2019-04-01T18:01:30.307Z,45.70
2019-04-01T18:04:02.297Z,46.20
2019-04-01T18:06:33.042Z,47.00
2019-04-01T18:09:04.226Z,46.80
2019-04-01T18:11:36.480Z,46.90
2019-04-01T18:14:07.592Z,47.10
2019-04-01T18:16:38.602Z,47.40
2019-04-01T18:19:09.013Z,47.60
2019-04-01T18:21:39.448Z,47.60
2019-04-01T18:24:10.531Z,48.00
2019-04-01T18:34:11.968Z,48.80
2019-04-01T18:36:42.402Z,50.90
2019-04-01T18:39:12.949Z,49.60
2019-04-01T18:41:44.908Z,49.20
2019-04-01T18:44:18.668Z,49.50
2019-04-01T18:46:49.570Z,49.60
2019-04-01T18:49:22.470Z,49.60
2019-04-01T18:51:53.870Z,49.70
2019-04-01T18:54:25.779Z,50.00
2019-04-01T18:56:58.127Z,50.10
2019-04-01T18:59:28.634Z,50.80
2019-04-01T19:02:00.819Z,50.10
2019-04-01T19:04:34.138Z,49.60
2019-04-01T19:07:06.406Z,50.70
2019-04-01T19:09:37.198Z,50.90
2019-04-01T19:12:07.761Z,50.70
2019-04-01T19:14:40.174Z,51.10
2019-04-01T19:17:11.727Z,51.30
2019-04-01T19:19:42.713Z,50.90
2019-04-01T19:22:13.926Z,51.20
2019-04-01T19:24:46.164Z,51.30
2019-04-01T19:27:17.170Z,51.50
2019-04-01T19:29:49.617Z,51.60
2019-04-01T19:32:20.269Z,51.60
2019-04-01T19:34:53.867Z,51.90
2019-04-01T19:37:29.303Z,51.90
2019-04-01T19:39:59.631Z,52.40
2019-04-01T19:42:30.869Z,52.90
2019-04-01T19:45:01.603Z,53.10
2019-04-01T19:47:34.155Z,53.80
2019-04-01T19:50:06.586Z,53.20
2019-04-01T19:52:38.157Z,53.60
2019-04-01T19:55:11.200Z,54.40
2019-04-01T19:57:41.574Z,53.80
2019-04-01T20:00:26.726Z,54.20
2019-04-01T20:02:44.938Z,54.90
2019-04-01T20:05:16.775Z,55.50
2019-04-01T20:07:47.170Z,55.00
2019-04-01T20:10:17.721Z,55.30
2019-04-01T20:12:50.748Z,56.20
2019-04-01T20:15:23.000Z,55.30
2019-04-01T20:20:25.496Z,55.20
2019-04-01T20:22:56.370Z,55.50
2019-04-01T20:25:28.279Z,55.70
2019-04-01T20:27:59.001Z,55.80
2019-04-01T20:30:30.257Z,55.90
2019-04-01T20:33:01.419Z,56.50
2019-04-01T20:35:35.227Z,56.40
2019-04-01T20:38:08.039Z,56.30
2019-04-01T20:40:38.676Z,57.00
2019-04-01T20:43:11.712Z,56.90
2019-04-01T20:45:42.919Z,57.20
2019-04-01T20:48:13.732Z,57.90
2019-04-01T20:50:43.990Z,57.30
2019-04-01T20:53:15.722Z,57.70
2019-04-01T20:55:48.624Z,57.40
2019-04-01T20:58:20.846Z,58.10
2019-04-01T21:00:51.899Z,58.10
2019-04-01T21:03:22.653Z,57.70
2019-04-01T21:05:55.523Z,57.70
2019-04-01T21:08:26.079Z,58.40
2019-04-01T21:10:57.201Z,57.80
2019-04-01T21:13:27.561Z,58.10
2019-04-01T21:15:59.706Z,58.10
2019-04-01T21:18:32.524Z,58.10
2019-04-01T21:21:02.869Z,60.50
2019-04-01T21:23:36.519Z,58.90
2019-04-01T21:26:07.427Z,58.50
2019-04-01T21:28:38.041Z,59.10
2019-04-01T21:31:08.294Z,58.80
2019-04-01T21:33:39.263Z,58.90
2019-04-01T21:36:10.070Z,58.90
2019-04-01T21:38:40.670Z,58.80
2019-04-01T21:41:11.139Z,58.80
2019-04-01T21:43:41.697Z,58.90
2019-04-01T21:46:13.197Z,59.20
2019-04-01T21:48:44.591Z,59.20
2019-04-01T21:51:14.959Z,59.40
2019-04-01T21:53:45.385Z,59.00
2019-04-01T21:56:16.123Z,59.30
2019-04-01T21:58:47.130Z,59.20
2019-04-01T22:01:25.526Z,60.40
2019-04-01T22:04:03.474Z,59.60
2019-04-01T22:06:40.173Z,60.20
2019-04-01T22:09:12.144Z,60.40
2019-04-01T22:11:43.228Z,60.10
2019-04-01T22:14:14.414Z,60.40
2019-04-01T22:16:44.990Z,60.80
2019-04-01T22:19:16.590Z,61.20
2019-04-01T22:21:48.487Z,60.70
2019-04-01T22:24:19.613Z,61.10
2019-04-01T22:26:49.912Z,60.80
2019-04-01T22:29:20.504Z,61.20
2019-04-01T22:31:50.935Z,61.00
2019-04-01T22:34:21.332Z,61.50
2019-04-01T22:36:52.037Z,61.30
2019-04-01T22:39:27.400Z,61.10
2019-04-01T22:41:54.571Z,61.40
2019-04-01T22:44:25.991Z,61.80
2019-04-01T22:46:56.368Z,61.80
2019-04-01T22:49:26.666Z,62.40
2019-04-01T22:51:58.133Z,62.50
2019-04-01T22:54:28.680Z,62.70
2019-04-01T22:56:58.893Z,62.80
2019-04-01T22:59:29.366Z,62.80
2019-04-01T23:01:59.683Z,63.00
2019-04-01T23:04:29.971Z,63.00
2019-04-01T23:07:00.555Z,63.60
2019-04-01T23:09:30.813Z,63.00
2019-04-01T23:12:01.119Z,63.60
2019-04-01T23:14:31.523Z,63.70
2019-04-01T23:17:02.014Z,63.80
2019-04-01T23:19:34.342Z,64.10
2019-04-01T23:22:04.820Z,64.40
2019-04-01T23:24:35.305Z,64.30
2019-04-01T23:27:05.690Z,64.40
2019-04-01T23:29:36.044Z,64.40
2019-04-01T23:34:35.918Z,64.70
2019-04-01T23:37:06.241Z,64.80
2019-04-01T23:39:36.443Z,65.30
2019-04-01T23:42:08.603Z,65.50
2019-04-01T23:44:39.009Z,65.80
2019-04-01T23:47:09.458Z,66.10
2019-04-01T23:49:40.849Z,66.10
2019-04-01T23:52:11.438Z,66.20
2019-04-01T23:54:41.815Z,66.40
2019-04-01T23:57:13.084Z,66.60
2019-04-01T23:59:43.477Z,66.70
